createdAt,value
2022-10-02T00:02:27.532Z,10.80
2022-10-02T00:05:27.805Z,10.80
2022-10-02T00:08:05.379Z,10.80
2022-10-02T00:10:55.238Z,10.70
2022-10-02T00:13:42.865Z,10.70
2022-10-02T00:16:33.683Z,10.70
2022-10-02T00:19:01.173Z,10.70
2022-10-02T00:22:16.201Z,10.70
2022-10-02T00:25:17.430Z,10.70
2022-10-02T00:28:25.403Z,10.70
2022-10-02T00:31:10.050Z,10.70
2022-10-02T00:33:59.486Z,10.70
2022-10-02T00:37:14.285Z,10.70
2022-10-02T00:40:10.527Z,10.70
2022-10-02T00:42:57.430Z,10.70
2022-10-02T00:46:02.408Z,10.70
2022-10-02T00:49:05.226Z,10.70
2022-10-02T00:51:47.658Z,10.70
2022-10-02T00:54:57.185Z,10.70
2022-10-02T00:57:55.771Z,10.70
2022-10-02T01:00:23.295Z,10.70
2022-10-02T01:03:25.921Z,10.70
2022-10-02T01:05:52.726Z,10.60
2022-10-02T01:08:19.575Z,10.60
2022-10-02T01:10:46.735Z,10.70
2022-10-02T01:13:13.485Z,10.60
2022-10-02T01:15:52.839Z,10.70
2022-10-02T01:18:19.943Z,10.70
2022-10-02T01:20:51.413Z,10.70
2022-10-02T01:23:30.351Z,10.70
2022-10-02T01:25:59.254Z,10.70
2022-10-02T01:28:27.147Z,10.80
2022-10-02T01:31:04.533Z,10.80
2022-10-02T01:33:32.315Z,10.80
2022-10-02T01:36:00.004Z,10.70
2022-10-02T01:38:28.385Z,10.70
2022-10-02T01:40:55.070Z,10.70
2022-10-02T01:43:33.979Z,10.70
2022-10-02T01:46:37.439Z,10.70
2022-10-02T01:49:14.414Z,10.70
2022-10-02T01:52:20.089Z,10.70
2022-10-02T01:55:06.306Z,10.70
2022-10-02T01:57:41.718Z,10.70
2022-10-02T02:00:18.860Z,10.60
2022-10-02T02:02:52.488Z,10.60
2022-10-02T02:05:37.195Z,10.60
2022-10-02T02:09:02.090Z,10.60
2022-10-02T02:11:30.387Z,10.60
2022-10-02T02:14:15.326Z,10.60
2022-10-02T02:16:45.682Z,10.60
2022-10-02T02:19:39.308Z,10.60
2022-10-02T02:22:14.576Z,10.60
2022-10-02T02:24:46.954Z,10.60
2022-10-02T02:27:24.163Z,10.60
2022-10-02T02:29:57.654Z,10.60
2022-10-02T02:32:31.143Z,10.60
2022-10-02T02:35:07.196Z,10.60
2022-10-02T02:37:40.321Z,10.60
2022-10-02T02:40:14.630Z,10.60
2022-10-02T02:42:48.382Z,10.50
2022-10-02T02:45:22.947Z,10.50
2022-10-02T02:47:55.855Z,10.50
2022-10-02T02:50:43.248Z,10.50
2022-10-02T02:53:36.166Z,10.50
2022-10-02T02:56:09.711Z,10.50
2022-10-02T02:59:01.402Z,10.50
2022-10-02T03:01:28.514Z,10.50
2022-10-02T03:03:55.299Z,10.50
2022-10-02T03:06:38.080Z,10.60
2022-10-02T03:09:12.811Z,10.60
2022-10-02T03:12:20.639Z,10.60
2022-10-02T03:15:21.778Z,10.60
2022-10-02T03:18:20.071Z,10.60
2022-10-02T03:21:07.886Z,10.60
2022-10-02T03:24:10.198Z,10.60
2022-10-02T03:26:46.960Z,10.60
2022-10-02T03:29:32.853Z,10.70
2022-10-02T03:32:01.131Z,10.70
2022-10-02T03:34:29.686Z,10.70
2022-10-02T03:36:56.706Z,10.70
2022-10-02T03:39:25.890Z,10.70
2022-10-02T03:41:53.680Z,10.70
2022-10-02T03:44:20.910Z,10.80
2022-10-02T03:46:47.641Z,10.80
2022-10-02T03:49:14.391Z,10.80
2022-10-02T03:51:41.099Z,10.80
2022-10-02T03:54:19.940Z,10.80
2022-10-02T03:57:05.672Z,10.90
2022-10-02T03:59:50.727Z,10.90
2022-10-02T04:02:43.593Z,10.80
2022-10-02T04:05:27.711Z,10.90
2022-10-02T04:08:02.642Z,10.90
2022-10-02T04:10:50.540Z,10.90
2022-10-02T04:13:42.978Z,10.90
2022-10-02T04:16:24.209Z,11.00
2022-10-02T04:19:13.993Z,11.00
2022-10-02T04:21:59.109Z,11.10
2022-10-02T04:24:46.918Z,11.10
2022-10-02T04:27:50.318Z,11.10
2022-10-02T04:30:20.507Z,11.10
2022-10-02T04:32:48.358Z,11.10
2022-10-02T04:35:37.606Z,11.10
2022-10-02T04:38:41.894Z,11.10
2022-10-02T04:41:50.006Z,11.10
2022-10-02T04:45:07.857Z,11.10
2022-10-02T04:48:01.363Z,11.20
2022-10-02T04:51:04.747Z,11.20
2022-10-02T04:53:52.652Z,11.20
2022-10-02T04:56:19.431Z,11.30
2022-10-02T04:59:05.261Z,11.20
2022-10-02T05:02:01.812Z,11.30
2022-10-02T05:05:08.719Z,11.30
2022-10-02T05:08:06.928Z,11.30
2022-10-02T05:10:44.147Z,11.30
2022-10-02T05:13:41.240Z,11.30
2022-10-02T05:16:40.407Z,11.30
2022-10-02T05:19:38.413Z,11.30
2022-10-02T05:22:23.875Z,11.30
2022-10-02T05:25:13.096Z,11.30
2022-10-02T05:28:13.568Z,11.40
2022-10-02T05:31:08.274Z,11.40
2022-10-02T05:34:02.816Z,11.40
2022-10-02T05:37:33.064Z,11.40
2022-10-02T05:40:29.600Z,11.40
2022-10-02T05:43:18.414Z,11.40
2022-10-02T05:45:56.657Z,11.40
2022-10-02T05:48:27.414Z,11.40
2022-10-02T05:51:03.595Z,11.40
2022-10-02T05:53:52.944Z,11.40
2022-10-02T05:56:32.809Z,11.50
2022-10-02T05:59:13.860Z,11.50
2022-10-02T06:01:46.604Z,11.50
2022-10-02T06:04:35.601Z,11.50
2022-10-02T06:07:12.061Z,11.50
2022-10-02T06:09:47.546Z,11.50
2022-10-02T06:12:30.504Z,11.60
2022-10-02T06:15:06.232Z,11.60
2022-10-02T06:17:47.893Z,11.60
2022-10-02T06:21:02.603Z,11.60
2022-10-02T06:23:41.920Z,11.60
2022-10-02T06:26:25.009Z,11.60
2022-10-02T06:29:02.258Z,11.60
2022-10-02T06:32:04.535Z,11.60
2022-10-02T06:34:31.352Z,11.60
2022-10-02T06:37:53.378Z,11.60
2022-10-02T06:40:42.724Z,11.70
2022-10-02T06:43:40.429Z,11.70
2022-10-02T06:46:26.992Z,11.70
2022-10-02T06:49:25.021Z,11.70
2022-10-02T06:52:32.183Z,11.70
2022-10-02T06:55:25.759Z,11.70
2022-10-02T06:58:34.557Z,11.80
2022-10-02T07:01:29.939Z,11.80
2022-10-02T07:04:04.353Z,11.90
2022-10-02T07:07:18.597Z,11.80
2022-10-02T07:10:14.823Z,11.90
2022-10-02T07:13:15.707Z,11.90
2022-10-02T07:16:08.376Z,11.90
2022-10-02T07:18:59.607Z,12.00
2022-10-02T07:22:26.129Z,12.00
2022-10-02T07:25:35.816Z,12.00
2022-10-02T07:28:39.302Z,12.10
2022-10-02T07:31:18.632Z,12.10
2022-10-02T07:34:25.757Z,12.10
2022-10-02T07:37:06.911Z,12.10
2022-10-02T07:40:19.358Z,12.10
2022-10-02T07:43:01.000Z,12.20
2022-10-02T07:45:42.484Z,12.20
2022-10-02T07:48:45.942Z,12.20
2022-10-02T07:51:53.640Z,12.30
2022-10-02T07:54:54.659Z,12.30
2022-10-02T07:57:35.987Z,12.30
2022-10-02T08:00:13.352Z,12.30
2022-10-02T08:03:01.391Z,12.30
2022-10-02T08:05:35.793Z,12.40
2022-10-02T08:08:27.189Z,12.40
2022-10-02T08:11:21.158Z,12.40
2022-10-02T08:13:58.322Z,12.40
2022-10-02T08:16:35.114Z,12.40
2022-10-02T08:19:12.058Z,12.40
2022-10-02T08:21:50.723Z,12.50
2022-10-02T08:24:26.343Z,12.50
2022-10-02T08:27:00.959Z,12.50
2022-10-02T08:29:40.104Z,12.50
2022-10-02T08:32:11.850Z,12.50
2022-10-02T08:34:40.711Z,12.50
2022-10-02T08:37:43.544Z,12.50
2022-10-02T08:40:56.277Z,12.50
2022-10-02T08:44:03.194Z,12.50
2022-10-02T08:46:47.811Z,12.50
2022-10-02T08:49:56.966Z,12.50
2022-10-02T08:52:59.314Z,12.50
2022-10-02T08:56:14.381Z,12.50
2022-10-02T08:59:42.022Z,12.50
2022-10-02T09:02:54.391Z,12.50
2022-10-02T09:06:07.798Z,12.50
2022-10-02T09:09:02.693Z,12.50
2022-10-02T09:12:11.370Z,12.40
2022-10-02T09:14:45.655Z,12.40
2022-10-02T09:17:45.494Z,12.40
2022-10-02T09:50:13.023Z,12.40
2022-10-02T10:00:02.527Z,12.40
2022-10-02T10:06:27.186Z,12.40
2022-10-02T10:09:20.546Z,12.50
2022-10-02T10:12:06.023Z,12.60
2022-10-02T10:15:19.906Z,12.60
2022-10-02T10:18:32.307Z,12.60
2022-10-02T10:21:29.392Z,12.60
2022-10-02T10:24:09.941Z,12.60
2022-10-02T10:27:00.826Z,12.60
2022-10-02T10:30:09.909Z,12.60
2022-10-02T10:33:24.389Z,12.60
2022-10-02T10:36:57.833Z,12.60
2022-10-02T10:40:11.693Z,12.60
2022-10-02T10:43:07.552Z,12.60
2022-10-02T10:46:17.169Z,12.60
2022-10-02T10:49:14.485Z,12.60
2022-10-02T10:51:59.310Z,12.60
2022-10-02T10:55:03.890Z,12.50
2022-10-02T10:58:09.614Z,12.50
2022-10-02T11:01:21.376Z,12.50
2022-10-02T11:04:26.521Z,12.50
2022-10-02T11:07:17.990Z,12.50
2022-10-02T11:10:28.472Z,12.50
2022-10-02T11:13:05.549Z,12.50
2022-10-02T11:16:00.394Z,12.60
2022-10-02T11:19:00.580Z,12.60
2022-10-02T11:21:33.102Z,12.60
2022-10-02T11:24:38.806Z,12.60
2022-10-02T11:27:44.997Z,12.60
2022-10-02T11:30:23.111Z,12.60
2022-10-02T11:33:24.469Z,12.60
2022-10-02T11:36:41.574Z,12.60
2022-10-02T11:39:56.495Z,12.60
2022-10-02T11:42:51.407Z,12.60
2022-10-02T11:45:43.509Z,12.60
2022-10-02T11:48:56.827Z,12.60
2022-10-02T11:51:46.180Z,12.60
2022-10-02T11:54:53.043Z,12.60
2022-10-02T11:58:00.328Z,12.60
2022-10-02T12:01:13.389Z,12.60
2022-10-02T12:04:11.873Z,12.60
2022-10-02T12:07:18.909Z,12.60
2022-10-02T12:10:07.204Z,12.50
2022-10-02T12:13:16.289Z,12.50
2022-10-02T12:16:22.336Z,12.50
2022-10-02T12:19:12.132Z,12.40
2022-10-02T12:22:37.233Z,12.40
2022-10-02T12:26:08.880Z,12.40
2022-10-02T12:29:09.044Z,12.50
2022-10-02T12:32:12.285Z,12.50
2022-10-02T12:34:58.877Z,12.50
2022-10-02T12:37:54.662Z,12.50
2022-10-02T12:40:43.600Z,12.60
2022-10-02T12:43:54.595Z,12.60
2022-10-02T12:47:08.112Z,12.60
2022-10-02T12:49:58.237Z,12.70
2022-10-02T12:53:15.777Z,12.70
2022-10-02T12:56:06.742Z,12.80
2022-10-02T12:59:11.457Z,12.80
2022-10-02T13:02:05.984Z,12.80
2022-10-02T13:05:12.507Z,12.80
2022-10-02T13:08:22.660Z,12.80
2022-10-02T13:11:08.043Z,12.80
2022-10-02T13:13:56.085Z,12.70
2022-10-02T13:16:58.268Z,12.80
2022-10-02T13:19:56.881Z,12.80
2022-10-02T13:22:37.756Z,12.80
2022-10-02T13:25:35.662Z,12.70
2022-10-02T13:28:17.869Z,12.70
2022-10-02T13:31:19.801Z,12.70
2022-10-02T13:34:19.033Z,12.70
2022-10-02T13:37:37.353Z,12.60
2022-10-02T13:40:32.355Z,12.60
2022-10-02T13:43:03.355Z,12.60
2022-10-02T13:45:44.076Z,12.70
2022-10-02T13:48:31.491Z,12.70
2022-10-02T13:51:08.743Z,12.70
2022-10-02T13:54:18.886Z,12.80
2022-10-02T13:57:07.007Z,12.80
2022-10-02T14:00:00.821Z,12.90
2022-10-02T14:02:45.453Z,12.90
2022-10-02T14:05:24.199Z,12.90
2022-10-02T14:08:26.368Z,12.90
2022-10-02T14:10:59.461Z,12.90
2022-10-02T14:13:28.782Z,12.80
2022-10-02T14:16:32.046Z,12.80
2022-10-02T14:19:42.134Z,12.80
2022-10-02T14:22:39.887Z,12.80
2022-10-02T14:26:00.619Z,12.80
2022-10-02T14:28:47.462Z,12.80
2022-10-02T14:31:39.072Z,12.80
2022-10-02T14:34:31.050Z,12.70
2022-10-02T14:37:29.034Z,12.80
2022-10-02T14:40:01.029Z,12.80
2022-10-02T14:43:13.710Z,12.80
2022-10-02T14:46:17.352Z,12.80
2022-10-02T14:49:18.078Z,12.70
2022-10-02T14:52:18.768Z,12.70
2022-10-02T14:54:57.885Z,12.70
2022-10-02T14:57:56.593Z,12.70
2022-10-02T15:00:25.414Z,12.70
2022-10-02T15:03:40.908Z,12.70
2022-10-02T15:06:50.692Z,12.70
2022-10-02T15:09:29.734Z,12.70
2022-10-02T15:12:08.341Z,12.70
2022-10-02T15:15:07.518Z,12.70
2022-10-02T15:17:57.353Z,12.70
2022-10-02T15:21:00.460Z,12.70
2022-10-02T15:23:32.991Z,12.70
2022-10-02T15:26:19.661Z,12.60
2022-10-02T15:29:14.063Z,12.60
2022-10-02T15:32:06.851Z,12.60
2022-10-02T15:34:47.213Z,12.50
2022-10-02T15:37:49.832Z,12.50
2022-10-02T15:40:22.295Z,12.50
2022-10-02T15:43:24.295Z,12.50
2022-10-02T15:46:27.675Z,12.50
2022-10-02T15:49:13.602Z,12.50
2022-10-02T15:52:30.398Z,12.50
2022-10-02T15:55:37.393Z,12.40
2022-10-02T15:58:16.799Z,12.40
2022-10-02T16:01:33.470Z,12.40
2022-10-02T16:04:34.368Z,12.40
2022-10-02T16:07:55.834Z,12.40
2022-10-02T16:10:40.540Z,12.40
2022-10-02T16:13:47.170Z,12.40
2022-10-02T16:16:46.191Z,12.30
2022-10-02T16:19:59.789Z,12.30
2022-10-02T16:23:35.486Z,12.30
2022-10-02T16:26:39.699Z,12.30
2022-10-02T16:30:01.064Z,12.20
2022-10-02T16:32:55.373Z,12.80
2022-10-02T16:35:43.673Z,12.20
2022-10-02T16:38:36.131Z,12.20
2022-10-02T16:41:46.185Z,12.20
2022-10-02T16:44:55.720Z,12.10
2022-10-02T16:47:32.438Z,12.10
2022-10-02T16:50:31.700Z,12.10
2022-10-02T16:53:06.459Z,12.00
2022-10-02T16:55:47.146Z,12.00
2022-10-02T16:58:42.969Z,12.00
2022-10-02T17:01:28.734Z,12.00
2022-10-02T17:04:05.853Z,12.00
2022-10-02T17:06:46.215Z,12.00
2022-10-02T17:09:34.842Z,12.00
2022-10-02T17:12:19.382Z,12.00
2022-10-02T17:15:17.355Z,12.00
2022-10-02T17:18:30.338Z,12.00
2022-10-02T17:21:13.250Z,12.00
2022-10-02T17:24:53.028Z,12.00
2022-10-02T17:27:32.567Z,11.90
2022-10-02T17:30:23.930Z,11.90
2022-10-02T17:33:05.643Z,11.90
2022-10-02T17:35:45.800Z,11.90
2022-10-02T17:38:24.009Z,11.80
2022-10-02T17:41:20.382Z,11.80
2022-10-02T17:44:07.450Z,11.80
2022-10-02T17:46:56.991Z,11.80
2022-10-02T17:49:57.730Z,11.80
2022-10-02T17:53:00.965Z,11.90
2022-10-02T17:56:29.140Z,11.90
2022-10-02T17:59:26.042Z,11.90
2022-10-02T18:02:41.197Z,11.90
2022-10-02T18:05:46.151Z,11.90
2022-10-02T18:08:43.175Z,11.90
2022-10-02T18:11:50.301Z,11.90
2022-10-02T18:14:55.236Z,11.90
2022-10-02T18:18:08.310Z,11.80
2022-10-02T18:21:03.474Z,11.80
2022-10-02T18:23:52.317Z,11.90
2022-10-02T18:26:39.808Z,11.80
2022-10-02T18:29:36.751Z,11.80
2022-10-02T18:45:35.379Z,11.80
2022-10-02T18:48:44.802Z,11.80
2022-10-02T18:51:35.848Z,11.80
2022-10-02T18:54:17.858Z,11.80
2022-10-02T18:57:33.267Z,11.80
2022-10-02T19:00:25.444Z,11.80
2022-10-02T19:03:23.388Z,11.80
2022-10-02T19:06:02.807Z,11.80
2022-10-02T19:09:07.256Z,11.80
2022-10-02T19:12:01.076Z,11.80
2022-10-02T19:14:45.667Z,11.80
2022-10-02T19:17:23.243Z,11.80
2022-10-02T19:19:50.216Z,11.80
2022-10-02T19:22:30.863Z,11.80
2022-10-02T19:25:16.264Z,11.80
2022-10-02T19:27:50.673Z,11.80
2022-10-02T19:30:26.879Z,11.70
2022-10-02T19:33:12.260Z,11.70
2022-10-02T19:35:43.860Z,11.70
2022-10-02T19:38:36.480Z,11.70
2022-10-02T19:41:14.313Z,11.70
2022-10-02T19:44:06.888Z,11.60
2022-10-02T19:46:44.895Z,11.60
2022-10-02T19:49:24.476Z,11.60
2022-10-02T19:51:53.003Z,11.60
2022-10-02T19:54:26.825Z,11.60
2022-10-02T19:57:12.269Z,11.60
2022-10-02T19:59:52.935Z,11.60
2022-10-02T20:02:39.130Z,11.50
2022-10-02T20:05:14.832Z,11.50
2022-10-02T20:07:43.909Z,11.50
2022-10-02T20:10:26.695Z,11.50
2022-10-02T20:13:22.461Z,11.40
2022-10-02T20:16:17.950Z,11.40
2022-10-02T20:18:46.526Z,11.30
2022-10-02T20:21:28.951Z,11.20
2022-10-02T20:24:00.847Z,11.20
2022-10-02T20:26:32.509Z,11.10
2022-10-02T20:29:06.598Z,11.10
2022-10-02T20:31:52.961Z,11.10
2022-10-02T20:34:40.508Z,11.10
2022-10-02T20:37:29.285Z,11.10
2022-10-02T20:40:08.464Z,11.10
2022-10-02T20:42:58.241Z,11.10
2022-10-02T20:45:39.167Z,11.20
2022-10-02T20:49:06.832Z,11.20
2022-10-02T20:52:00.665Z,11.20
2022-10-02T20:54:46.123Z,11.20
2022-10-02T20:57:59.162Z,11.20
2022-10-02T21:00:28.700Z,11.20
2022-10-02T21:03:22.754Z,11.30
2022-10-02T21:06:20.079Z,11.30
2022-10-02T21:09:16.742Z,11.30
2022-10-02T21:12:39.919Z,11.30
2022-10-02T21:15:45.913Z,11.30
2022-10-02T21:18:49.365Z,11.30
2022-10-02T21:21:44.522Z,11.30
2022-10-02T21:25:02.146Z,11.30
2022-10-02T21:47:10.573Z,11.20
2022-10-02T21:50:10.618Z,11.30
2022-10-02T21:53:18.584Z,11.20
2022-10-02T21:56:12.696Z,11.20
2022-10-02T21:58:55.138Z,11.20
2022-10-02T22:02:07.635Z,11.20
2022-10-02T22:05:24.772Z,11.20
2022-10-02T22:08:10.537Z,11.20
2022-10-02T22:11:11.111Z,11.10
2022-10-02T22:13:45.998Z,11.10
2022-10-02T22:16:44.980Z,11.10
2022-10-02T22:19:37.228Z,11.10
2022-10-02T22:22:24.123Z,11.10
2022-10-02T22:25:33.148Z,11.10
2022-10-02T22:28:11.883Z,11.10
2022-10-02T22:31:03.053Z,11.10
2022-10-02T22:33:54.023Z,11.10
2022-10-02T22:37:13.980Z,11.10
2022-10-02T22:39:54.786Z,11.10
2022-10-02T22:42:53.931Z,11.10
2022-10-02T22:45:43.312Z,11.10
2022-10-02T22:48:58.631Z,11.10
2022-10-02T22:51:40.494Z,11.10
2022-10-02T22:54:35.125Z,11.10
2022-10-02T22:57:01.768Z,11.10
2022-10-02T22:59:52.770Z,11.10
2022-10-02T23:02:50.721Z,11.10
2022-10-02T23:05:26.434Z,11.10
2022-10-02T23:08:14.837Z,11.10
2022-10-02T23:11:00.958Z,11.10
2022-10-02T23:13:56.555Z,11.10
2022-10-02T23:29:28.300Z,11.10
2022-10-02T23:32:20.106Z,11.10
2022-10-02T23:41:27.405Z,11.00
2022-10-02T23:44:24.277Z,11.10
2022-10-02T23:46:50.902Z,11.10
2022-10-02T23:49:35.144Z,11.00
2022-10-02T23:52:36.095Z,11.00
2022-10-02T23:55:36.647Z,11.00
2022-10-02T23:58:31.394Z,11.00
